Time;durP1;ratioP1;P1;durP2;ratioP2;P2;SDS_P1;SDS_P2;PMS_P1;PMS_P2;Temp;Humidity;BMP_temperature;BMP_pressure;BME280_temperature;BME280_humidity;BME280_pressure;Samples;Min_cycle;Max_cycle;Signal;HPM_P1;HPM_P2
2022/07/12 00:00:00;;;;;;;3.92;1.58;;;;;;;;;;4989875;28;20026;-52
2022/07/12 00:02:26;;;;;;;7.80;1.60;;;;;;;;;;4993434;28;20057;-52
2022/07/12 00:04:52;;;;;;;1.90;1.37;;;;;;;;;;5000570;28;20022;-52
2022/07/12 00:07:18;;;;;;;4.18;1.40;;;;;;;;;;4987786;28;20818;-52
2022/07/12 00:09:44;;;;;;;9.93;2.00;;;;;;;;;;4985241;28;20495;-53
2022/07/12 00:12:10;;;;;;;4.67;2.03;;;;;;;;;;4992484;28;20813;-54
2022/07/12 00:14:36;;;;;;;8.18;2.33;;;;;;;;;;4997211;28;20287;-52
2022/07/12 00:17:04;;;;;;;4.50;1.83;;;;;;;;;;4984078;28;20034;-52
2022/07/12 00:19:30;;;;;;;4.53;1.40;;;;;;;;;;4989225;28;20030;-52
2022/07/12 00:21:56;;;;;;;4.07;1.45;;;;;;;;;;4997183;28;20487;-52
2022/07/12 00:24:22;;;;;;;9.20;2.95;;;;;;;;;;4983571;28;20085;-53
2022/07/12 00:26:48;;;;;;;4.38;1.80;;;;;;;;;;4989833;28;20061;-52
2022/07/12 00:29:14;;;;;;;8.85;1.70;;;;;;;;;;4986118;28;20078;-52
2022/07/12 00:31:40;;;;;;;3.83;1.80;;;;;;;;;;4992205;28;20069;-52
2022/07/12 00:34:06;;;;;;;6.03;1.80;;;;;;;;;;4993314;28;20475;-52
2022/07/12 00:36:32;;;;;;;4.87;1.93;;;;;;;;;;4993266;28;20026;-52
2022/07/12 00:38:58;;;;;;;5.18;1.35;;;;;;;;;;5002353;28;20268;-52
2022/07/12 00:41:24;;;;;;;13.32;2.88;;;;;;;;;;5002493;28;20034;-51
2022/07/12 00:43:50;;;;;;;8.43;1.52;;;;;;;;;;4983507;28;20341;-52
2022/07/12 00:46:19;;;;;;;3.72;1.50;;;;;;;;;;4990644;28;20081;-52
2022/07/12 00:48:45;;;;;;;2.78;1.45;;;;;;;;;;4978041;28;20062;-52
2022/07/12 00:51:11;;;;;;;6.28;1.88;;;;;;;;;;4991235;28;20487;-53
2022/07/12 00:53:37;;;;;;;15.93;2.57;;;;;;;;;;4992870;28;20109;-52
2022/07/12 00:56:04;;;;;;;5.83;1.90;;;;;;;;;;4993376;28;20265;-51
2022/07/12 00:58:31;;;;;;;4.32;1.38;;;;;;;;;;4992680;28;20022;-51
2022/07/12 01:00:58;;;;;;;5.75;1.60;;;26.20;52.60;;;;;;4992966;28;20034;-52
2022/07/12 01:03:25;;;;;;;3.90;1.60;;;25.60;54.70;;;;;;4993124;28;20030;-52
2022/07/12 01:05:51;;;;;;;3.75;1.30;;;;;;;;;;4987558;28;20034;-53
2022/07/12 01:08:18;;;;;;;5.55;1.65;;;;;;;;;;4991494;28;20403;-52
2022/07/12 01:10:44;;;;;;;3.53;1.90;;;;;;;;;;4983677;28;20030;-52
2022/07/12 01:13:11;;;;;;;2.47;1.65;;;;;;;;;;4993803;28;20034;-52
2022/07/12 01:15:37;;;;;;;7.57;1.88;;;;;;;;;;4999515;28;20028;-51
2022/07/12 01:18:27;;;;;;;7.13;1.45;;;;;;;;;;4996371;28;20052;-52
2022/07/12 01:20:53;;;;;;;5.18;1.65;;;;;;;;;;4998152;28;20062;-53
2022/07/12 01:23:19;;;;;;;3.97;1.58;;;;;;;;;;4997589;28;20038;-54
2022/07/12 01:25:45;;;;;;;5.75;1.50;;;;;;;;;;4993504;28;20396;-53
2022/07/12 01:28:11;;;;;;;2.95;1.58;;;;;;;;;;4992198;28;20034;-52
2022/07/12 01:30:37;;;;;;;2.97;1.40;;;;;;;;;;4979414;28;20110;-52
2022/07/12 01:33:04;;;;;;;3.45;1.60;;;;;;;;;;4993103;28;20267;-53
2022/07/12 01:35:31;;;;;;;4.07;1.85;;;;;;;;;;4991822;28;20030;-53
2022/07/12 01:37:57;;;;;;;5.60;2.30;;;;;;;;;;5003497;28;20033;-54
2022/07/12 01:40:23;;;;;;;5.53;2.45;;;;;;;;;;4999295;28;20559;-54
2022/07/12 01:42:50;;;;;;;2.55;1.60;;;;;;;;;;4993025;28;20128;-55
2022/07/12 01:45:16;;;;;;;5.13;2.08;;;;;;;;;;4977397;28;20562;-52
2022/07/12 01:47:42;;;;;;;11.80;2.60;;;;;;;;;;4992338;28;20038;-52
2022/07/12 01:50:09;;;;;;;6.03;1.70;;;;;;;;;;4992537;28;20158;-52
2022/07/12 01:52:36;;;;;;;4.68;1.58;;;;;;;;;;4993501;28;20057;-52
2022/07/12 01:55:03;;;;;;;4.03;1.65;;;;;;;;;;4992033;28;20114;-54
2022/07/12 01:57:29;;;;;;;2.47;1.90;;;;;;;;;;4991826;28;20484;-53
2022/07/12 01:59:56;;;;;;;6.93;1.90;;;;;;;;;;5000043;28;20042;-53
2022/07/12 02:02:23;;;;;;;2.72;1.88;;;;;;;;;;4996706;28;20021;-53
2022/07/12 02:04:49;;;;;;;4.95;2.13;;;;;;;;;;4999527;28;20116;-52
2022/07/12 02:07:15;;;;;;;2.90;1.75;;;;;;;;;;4990387;28;20023;-52
2022/07/12 02:09:41;;;;;;;5.80;1.90;;;;;;;;;;4990869;28;20402;-55
2022/07/12 02:12:08;;;;;;;2.28;1.63;;;;;;;;;;4993623;28;20515;-54
2022/07/12 02:14:34;;;;;;;9.23;2.08;;;;;;;;;;4988073;28;20027;-52
2022/07/12 02:17:00;;;;;;;4.95;1.60;;;;;;;;;;4975690;28;20447;-52
2022/07/12 02:19:26;;;;;;;6.38;2.03;;;;;;;;;;4988245;28;20030;-55
2022/07/12 02:21:52;;;;;;;5.00;2.00;;;;;;;;;;4989550;28;20030;-54
2022/07/12 02:24:18;;;;;;;2.93;1.43;;;;;;;;;;4973221;28;20039;-54
2022/07/12 02:26:44;;;;;;;2.43;1.80;;;;;;;;;;4989649;28;20854;-52
2022/07/12 02:29:11;;;;;;;6.63;1.90;;;;;;;;;;4986572;28;20041;-55
2022/07/12 02:31:37;;;;;;;3.60;1.88;;;;;;;;;;4982337;28;20615;-52
2022/07/12 02:34:04;;;;;;;3.58;2.03;;;;;;;;;;4984749;28;20027;-53
2022/07/12 02:36:30;;;;;;;6.90;2.17;;;;;;;;;;4995814;28;20061;-53
2022/07/12 02:38:56;;;;;;;4.70;1.52;;;;;;;;;;4995105;28;20093;-53
2022/07/12 02:41:22;;;;;;;2.13;1.30;;;;;;;;;;4982719;28;20072;-52
2022/07/12 02:43:48;;;;;;;3.47;1.80;;;;;;;;;;5003317;28;20030;-52
2022/07/12 02:46:14;;;;;;;5.90;1.80;;;;;;;;;;4993715;28;20113;-52
2022/07/12 02:48:41;;;;;;;6.78;1.67;;;;;;;;;;5000874;28;20762;-52
2022/07/12 02:51:07;;;;;;;2.33;1.63;;;;;;;;;;4998847;28;20056;-52
2022/07/12 02:53:34;;;;;;;9.20;2.00;;;;;;;;;;5011296;28;20037;-52
2022/07/12 02:56:00;;;;;;;2.63;1.55;;;;;;;;;;4994668;28;20369;-52
2022/07/12 02:58:27;;;;;;;4.47;1.60;;;;;;;;;;4979719;28;20030;-52
2022/07/12 03:00:53;;;;;;;3.78;1.58;;;;;;;;;;4994982;28;20497;-52
2022/07/12 03:03:19;;;;;;;5.10;2.20;;;;;;;;;;5004687;28;20033;-52
2022/07/12 03:05:45;;;;;;;2.60;1.63;;;;;;;;;;4994875;28;20407;-54
2022/07/12 03:08:11;;;;;;;4.40;1.67;;;;;;;;;;4975717;28;20070;-53
2022/07/12 03:10:38;;;;;;;3.58;1.80;;;;;;;;;;4987395;28;20033;-55
2022/07/12 03:13:04;;;;;;;3.63;1.73;;;;;;;;;;4986974;28;20031;-52
2022/07/12 03:15:31;;;;;;;2.80;1.80;;;;;;;;;;4986223;28;20078;-54
2022/07/12 03:17:57;;;;;;;4.03;1.65;;;;;;;;;;4994572;28;20040;-54
2022/07/12 03:20:24;;;;;;;4.68;1.73;;;;;;;;;;4994369;28;20022;-52
2022/07/12 03:22:51;;;;;;;8.10;1.90;;;;;;;;;;4993109;28;20022;-52
2022/07/12 03:25:18;;;;;;;2.55;1.27;;;;;;;;;;5008343;28;20438;-52
2022/07/12 03:27:44;;;;;;;9.18;2.13;;;;;;;;;;5002083;28;20030;-52
2022/07/12 03:30:10;;;;;;;5.57;2.70;;;;;;;;;;4995502;28;20034;-52
2022/07/12 03:32:37;;;;;;;9.98;2.05;;;;;;;;;;4994427;28;20459;-52
2022/07/12 03:35:03;;;;;;;;;;;;;;;;;;4994608;28;20430;-52
2022/07/12 03:37:40;;;;;;;8.85;1.65;;;;;;;;;;5002675;28;19992;-52
2022/07/12 03:40:06;;;;;;;8.45;2.08;;;;;;;;;;5001097;28;20030;-54
2022/07/12 03:42:32;;;;;;;8.45;1.55;;;;;;;;;;4995558;28;20027;-53
2022/07/12 03:44:58;;;;;;;5.53;2.23;;;;;;;;;;4992180;28;20084;-54
2022/07/12 03:47:24;;;;;;;9.10;2.87;;;;;;;;;;4976312;28;20332;-53
2022/07/12 03:49:50;;;;;;;2.92;1.40;;;;;;;;;;4993786;28;20034;-52
2022/07/12 03:52:16;;;;;;;3.73;1.70;;;;;;;;;;5002821;28;20105;-52
2022/07/12 03:54:42;;;;;;;3.33;1.47;;;;;;;;;;4995315;28;20337;-52
2022/07/12 03:57:14;;;;;;;8.53;1.90;;;;;;;;;;4993918;28;20026;-52
2022/07/12 03:59:41;;;;;;;6.85;1.70;;;;;;;;;;4994003;28;20246;-52
2022/07/12 04:02:07;;;;;;;;;;;;;;;;;;4985516;28;20097;-53
2022/07/12 04:04:33;;;;;;;3.55;1.70;;;;;;;;;;4993031;28;19913;-53
2022/07/12 04:06:59;;;;;;;13.68;2.40;;;;;;;;;;4994057;28;20443;-53
2022/07/12 04:09:25;;;;;;;6.90;1.83;;;;;;;;;;4993642;28;20097;-54
2022/07/12 04:11:51;;;;;;;4.07;1.73;;;;;;;;;;4992321;28;20500;-53
2022/07/12 04:14:17;;;;;;;4.63;1.97;;;;;;;;;;4993269;28;20260;-53
2022/07/12 04:16:44;;;;;;;5.65;1.70;;;;;;;;;;4993054;28;20097;-54
2022/07/12 04:19:10;;;;;;;3.42;1.23;;;;;;;;;;4994149;28;20026;-52
2022/07/12 04:21:37;;;;;;;6.07;1.65;;;25.50;55.00;;;;;;4993874;28;20081;-53
2022/07/12 04:24:04;;;;;;;5.75;1.95;;;25.40;56.80;;;;;;4993020;28;20506;-52
2022/07/12 04:26:30;;;;;;;3.50;1.40;;;;;;;;;;4992016;28;20034;-54
2022/07/12 04:28:57;;;;;;;4.22;1.67;;;;;;;;;;4992763;28;20081;-52
2022/07/12 04:31:23;;;;;;;3.15;1.63;;;;;;;;;;4993499;28;20034;-52
2022/07/12 04:33:49;;;;;;;3.70;1.83;;;;;;;;;;4993754;28;20019;-52
2022/07/12 04:36:15;;;;;;;4.20;1.57;;;;;;;;;;4993315;28;20307;-52
2022/07/12 04:38:41;;;;;;;4.30;1.80;;;;;;;;;;4993037;28;20104;-52
2022/07/12 04:41:07;;;;;;;3.47;1.80;;;;;;;;;;4993477;28;20393;-52
2022/07/12 04:43:33;;;;;;;5.75;1.77;;;25.40;56.50;;;;;;4993572;28;20031;-52
2022/07/12 04:46:11;;;;;;;6.30;2.23;;;25.50;58.10;;;;;;4993652;28;20026;-52
2022/07/12 04:48:38;;;;;;;4.78;2.00;;;25.50;58.20;;;;;;4992097;28;20034;-52
2022/07/12 04:51:04;;;;;;;5.15;1.83;;;25.50;57.30;;;;;;4993421;28;20387;-53
2022/07/12 04:53:29;;;;;;;5.20;1.50;;;25.50;57.30;;;;;;4993240;28;20033;-52
2022/07/12 04:55:56;;;;;;;5.30;2.53;;;25.60;56.50;;;;;;4992153;28;20559;-54
2022/07/12 04:58:23;;;;;;;1.77;1.67;;;;;;;;;;4993592;28;20034;-52
2022/07/12 05:00:49;;;;;;;4.07;2.53;;;;;;;;;;4992581;28;20054;-53
2022/07/12 05:03:15;;;;;;;5.22;1.90;;;;;;;;;;5021764;23;20054;-52
2022/07/12 05:05:41;;;;;;;6.60;1.83;;;;;;;;;;5012082;28;20084;-53
2022/07/12 05:08:07;;;;;;;6.10;1.70;;;;;;;;;;5012252;28;20331;-53
2022/07/12 05:10:33;;;;;;;7.57;2.43;;;;;;;;;;5012769;28;20030;-53
2022/07/12 05:12:59;;;;;;;6.07;1.80;;;;;;;;;;5011354;28;20680;-52
2022/07/12 05:15:25;;;;;;;4.90;2.03;;;;;;;;;;5012638;28;20060;-52
2022/07/12 05:17:51;;;;;;;7.05;2.05;;;;;;;;;;5011282;28;20034;-55
2022/07/12 05:20:17;;;;;;;8.68;1.77;;;25.60;57.00;;;;;;5012440;28;20025;-53
2022/07/12 05:22:42;;;;;;;15.60;2.87;;;26.20;57.10;;;;;;5012316;28;20113;-54
2022/07/12 05:25:09;;;;;;;4.97;2.13;;;26.20;56.80;;;;;;5012542;28;20029;-53
2022/07/12 05:27:37;;;;;;;3.72;1.95;;;26.20;56.90;;;;;;5012624;28;20105;-52
2022/07/12 05:30:04;;;;;;;5.47;2.00;;;26.20;56.90;;;;;;5012137;28;20033;-52
2022/07/12 05:32:30;;;;;;;;;;;;;;;;;;5012752;28;20029;-52
2022/07/12 05:34:56;;;;;;;2.60;1.85;;;;;;;;;;5012293;28;19906;-52
2022/07/12 05:37:24;;;;;;;3.43;1.70;;;;;;;;;;5012302;28;20018;-52
2022/07/12 05:39:51;;;;;;;7.20;2.03;;;;;;;;;;5012313;28;20051;-52
2022/07/12 05:42:16;;;;;;;10.52;2.85;;;26.20;56.70;;;;;;5012325;28;20021;-53
2022/07/12 05:44:42;;;;;;;8.00;2.80;;;26.20;56.90;;;;;;5012194;28;20029;-52
2022/07/12 05:47:08;;;;;;;7.43;2.60;;;26.20;57.20;;;;;;5012211;28;20029;-52
2022/07/12 05:49:34;;;;;;;3.97;2.10;;;26.20;57.50;;;;;;5011897;28;20026;-53
2022/07/12 05:54:44;;;;;;;5.75;2.42;;;;;;;;;;5012161;28;20033;-54
2022/07/12 05:57:11;;;;;;;7.43;2.30;;;;;;;;;;5008953;28;20026;-57
2022/07/12 05:59:37;;;;;;;5.53;2.40;;;;;;;;;;5000731;28;20471;-56
2022/07/12 06:02:03;;;;;;;6.68;2.53;;;;;;;;;;5005785;28;20084;-53
2022/07/12 06:04:30;;;;;;;5.30;2.42;;;;;;;;;;4992244;28;20038;-53
2022/07/12 06:06:56;;;;;;;7.45;1.98;;;;;;;;;;4992462;28;20033;-53
2022/07/12 06:09:22;;;;;;;5.78;2.63;;;;;;;;;;4992219;28;20034;-53
2022/07/12 06:11:48;;;;;;;6.85;2.20;;;;;;;;;;4992439;28;20026;-53
2022/07/12 06:14:14;;;;;;;7.78;2.22;;;;;;;;;;4992170;28;20023;-53
2022/07/12 06:16:41;;;;;;;3.63;1.63;;;;;;;;;;4992215;28;20076;-53
2022/07/12 06:19:07;;;;;;;5.22;2.17;;;;;;;;;;4992386;28;20403;-50
2022/07/12 06:21:33;;;;;;;5.60;1.88;;;;;;;;;;4992215;28;20061;-50
2022/07/12 06:23:59;;;;;;;10.75;1.95;;;;;;;;;;4992224;28;20030;-50
2022/07/12 06:26:25;;;;;;;6.50;1.75;;;;;;;;;;4992196;28;20399;-50
2022/07/12 06:28:51;;;;;;;3.65;1.30;;;26.20;57.40;;;;;;4991952;28;20474;-51
2022/07/12 06:31:17;;;;;;;17.70;1.83;;;;;;;;;;5000202;28;20022;-50
2022/07/12 06:33:43;;;;;;;9.23;2.13;;;;;;;;;;5011699;28;20026;-50
2022/07/12 06:36:09;;;;;;;3.67;1.73;;;;;;;;;;5011734;28;20030;-50
2022/07/12 06:38:35;;;;;;;3.28;1.90;;;;;;;;;;5011514;28;20026;-50
2022/07/12 06:41:01;;;;;;;6.80;1.67;;;;;;;;;;5011672;28;20054;-50
2022/07/12 06:43:27;;;;;;;6.15;2.00;;;;;;;;;;5011593;28;20029;-50
2022/07/12 06:45:54;;;;;;;4.82;1.67;;;;;;;;;;5011582;28;20041;-50
2022/07/12 06:48:20;;;;;;;2.72;1.15;;;;;;;;;;5008971;28;20105;-53
2022/07/12 06:50:46;;;;;;;2.83;1.30;;;;;;;;;;4991907;28;20023;-53
2022/07/12 06:53:13;;;;;;;11.18;1.85;;;;;;;;;;4992001;28;20026;-50
2022/07/12 06:55:39;;;;;;;;;;;;;;;;;;4992425;28;20038;-50
2022/07/12 06:58:05;;;;;;;5.53;1.52;;;;;;;;;;4991922;28;20460;-50
2022/07/12 07:00:31;;;;;;;6.65;1.58;;;;;;;;;;4999317;28;20498;-50
2022/07/12 07:02:57;;;;;;;6.47;1.73;;;;;;;;;;4995427;28;20169;-50
2022/07/12 07:05:23;;;;;;;4.22;2.13;;;;;;;;;;5006055;28;20462;-50
2022/07/12 07:07:49;;;;;;;2.75;1.17;;;;;;;;;;5011435;28;20080;-50
2022/07/12 07:10:15;;;;;;;3.97;1.70;;;;;;;;;;5011233;28;20026;-50
2022/07/12 07:12:41;;;;;;;4.47;1.52;;;;;;;;;;5011274;28;20030;-49
2022/07/12 07:15:08;;;;;;;6.28;1.60;;;;;;;;;;5013921;28;20108;-50
2022/07/12 07:17:34;;;;;;;4.15;1.20;;;;;;;;;;5011748;28;20026;-50
2022/07/12 07:20:00;;;;;;;4.47;1.40;;;;;;;;;;5011837;28;20032;-50
2022/07/12 07:22:27;;;;;;;3.80;1.55;;;26.90;55.30;;;;;;5014810;28;20034;-50
2022/07/12 07:24:53;;;;;;;3.30;0.90;;;27.80;51.60;;;;;;5014568;28;20026;-52
2022/07/12 07:27:19;;;;;;;1.40;1.30;;;27.80;51.80;;;;;;5013249;28;20036;-51
2022/07/12 07:32:29;;;;;;;3.28;1.20;;;27.90;51.80;;;;;;5014621;28;20041;-50
2022/07/12 07:34:55;;;;;;;86.37;8.77;;;28.20;50.30;;;;;;5014686;28;20014;-52
2022/07/12 07:37:21;;;;;;;67.57;6.10;;;;;;;;;;5014478;28;20026;-50
2022/07/12 07:39:47;;;;;;;16.50;1.92;;;;;;;;;;5014142;28;20034;-50
2022/07/12 07:42:13;;;;;;;10.38;1.92;;;;;;;;;;5014318;28;20038;-53
2022/07/12 07:44:39;;;;;;;28.73;2.85;;;;;;;;;;5014317;28;20101;-52
2022/07/12 07:47:05;;;;;;;6.60;1.88;;;;;;;;;;5014356;28;20053;-50
2022/07/12 07:49:31;;;;;;;2.67;1.75;;;;;;;;;;5000518;28;20084;-52
2022/07/12 07:51:57;;;;;;;6.68;1.38;;;;;;;;;;4999688;28;20080;-53
2022/07/12 07:54:23;;;;;;;6.85;2.03;;;;;;;;;;5005746;28;20036;-53
2022/07/12 07:56:49;;;;;;;5.97;1.33;;;;;;;;;;5007762;28;20502;-53
2022/07/12 07:59:15;;;;;;;6.25;1.63;;;;;;;;;;5002098;28;20479;-52
2022/07/12 08:01:53;;;;;;;8.52;1.55;;;;;;;;;;5003577;28;20034;-50
2022/07/12 08:04:21;;;;;;;6.97;1.67;;;;;;;;;;4994212;28;20041;-53
2022/07/12 08:06:47;;;;;;;5.40;1.70;;;;;;;;;;4994318;28;20041;-50
2022/07/12 08:09:14;;;;;;;;;;;;;;;;;;4999544;28;20407;-52
2022/07/12 08:11:40;;;;;;;4.65;1.45;;;;;;;;;;5006347;28;19948;-50
2022/07/12 08:14:06;;;;;;;5.10;1.42;;;;;;;;;;5013657;28;20049;-51
2022/07/12 08:16:33;;;;;;;6.80;2.45;;;;;;;;;;5005000;28;20029;-50
2022/07/12 08:18:59;;;;;;;;;;;;;;;;;;5002644;28;20038;-50
2022/07/12 08:21:25;;;;;;;1.88;1.20;;;;;;;;;;5013558;28;20044;-49
2022/07/12 08:23:52;;;;;;;8.95;1.77;;;;;;;;;;5013564;28;20364;-49
2022/07/12 08:26:19;;;;;;;4.25;1.20;;;;;;;;;;5013256;28;20084;-52
2022/07/12 08:28:45;;;;;;;9.95;1.83;;;;;;;;;;5007586;28;20034;-50
2022/07/12 08:31:13;;;;;;;3.00;1.40;;;;;;;;;;4993942;28;20505;-50
2022/07/12 08:33:40;;;;;;;2.03;1.45;;;;;;;;;;4993861;28;20030;-50
2022/07/12 08:36:06;;;;;;;6.95;1.70;;;;;;;;;;4993759;28;20061;-52
2022/07/12 08:38:33;;;;;;;4.30;1.52;;;;;;;;;;4993565;28;20117;-50
2022/07/12 08:40:59;;;;;;;;;;;;;;;;;;4994168;28;20026;-50
2022/07/12 08:43:25;;;;;;;9.60;2.08;;;;;;;;;;4993716;28;19906;-50
2022/07/12 08:45:51;;;;;;;3.97;1.55;;;;;;;;;;4993524;28;20033;-50
2022/07/12 08:48:17;;;;;;;3.90;1.55;;;;;;;;;;4993432;28;20026;-50
2022/07/12 08:50:45;;;;;;;2.38;1.45;;;;;;;;;;4993297;28;20038;-51
2022/07/12 08:53:12;;;;;;;12.27;1.80;;;;;;;;;;4993440;28;20019;-50
2022/07/12 08:55:38;;;;;;;7.60;1.80;;;;;;;;;;4993420;28;20506;-51
2022/07/12 08:58:14;;;;;;;7.07;1.60;;;;;;;;;;4992013;28;20485;-50
2022/07/12 09:00:40;;;;;;;5.50;1.67;;;;;;;;;;4993132;28;20026;-54
2022/07/12 09:03:07;;;;;;;3.08;1.42;;;28.20;50.30;;;;;;4993054;28;20065;-53
2022/07/12 09:05:34;;;;;;;7.43;1.75;;;29.20;50.20;;;;;;4995666;28;20025;-51
2022/07/12 09:08:09;;;;;;;8.82;1.85;;;29.20;50.10;;;;;;5009440;28;20028;-50
2022/07/12 09:10:51;;;;;;;4.20;1.52;;;;;;;;;;5009545;28;20027;-50
2022/07/12 09:13:18;;;;;;;3.30;1.33;;;;;;;;;;5007435;28;20027;-50
2022/07/12 09:15:46;;;;;;;6.22;1.92;;;;;;;;;;5012539;28;20026;-50
2022/07/12 09:18:13;;;;;;;5.10;2.05;;;;;;;;;;5012668;28;20494;-50
2022/07/12 09:20:40;;;;;;;7.25;1.95;;;;;;;;;;5012673;28;20033;-52
2022/07/12 09:23:08;;;;;;;10.38;1.95;;;;;;;;;;4996451;28;20117;-49
2022/07/12 09:25:34;;;;;;;9.07;1.83;;;;;;;;;;4992963;28;20034;-51
2022/07/12 09:28:03;;;;;;;5.47;1.60;;;;;;;;;;4992831;28;20390;-50
2022/07/12 09:30:31;;;;;;;4.80;1.70;;;;;;;;;;4991281;28;20105;-50
2022/07/12 09:38:29;;;;;;;5.13;1.67;;;;;;;;;;5001146;28;20509;-50
2022/07/12 09:40:55;;;;;;;13.75;2.42;;;;;;;;;;5007246;28;20033;-49
2022/07/12 09:43:23;;;;;;;2.40;1.70;;;;;;;;;;5003105;28;20034;-52
2022/07/12 09:45:49;;;;;;;2.83;1.50;;;;;;;;;;4997347;28;20084;-49
2022/07/12 09:48:16;;;;;;;9.75;2.17;;;;;;;;;;5011410;28;20048;-52
2022/07/12 09:50:42;;;;;;;;;;;;;;;;;;5011756;28;20057;-50
2022/07/12 09:53:10;;;;;;;4.57;1.83;;;;;;;;;;5011484;28;20043;-50
2022/07/12 09:55:40;;;;;;;4.53;1.30;;;;;;;;;;5011409;28;20018;-50
2022/07/12 09:58:07;;;;;;;3.95;1.10;;;;;;;;;;5009527;28;20426;-49
2022/07/12 10:00:36;;;;;;;4.05;1.77;;;;;;;;;;5010645;28;20033;-52
2022/07/12 10:03:04;;;;;;;4.07;1.65;;;;;;;;;;5011376;28;20030;-50
2022/07/12 10:05:30;;;;;;;13.68;11.32;;;;;;;;;;5010902;28;20105;-51
2022/07/12 10:07:56;;;;;;;4.55;1.88;;;;;;;;;;5011477;28;20049;-50
2022/07/12 10:10:23;;;;;;;6.20;1.70;;;;;;;;;;5011082;28;20560;-48
2022/07/12 10:12:49;;;;;;;3.25;1.27;;;;;;;;;;5010886;28;20061;-50
2022/07/12 10:15:16;;;;;;;4.22;1.25;;;;;;;;;;5011029;28;20022;-50
2022/07/12 10:17:44;;;;;;;2.33;1.63;;;;;;;;;;5010360;28;20033;-50
2022/07/12 10:20:15;;;;;;;3.53;1.33;;;;;;;;;;5009388;28;20105;-50
2022/07/12 10:22:41;;;;;;;4.97;1.63;;;;;;;;;;5010839;28;20033;-50
2022/07/12 10:25:27;;;;;;;7.85;2.10;;;;;;;;;;5005368;28;20033;-49
2022/07/12 10:27:54;;;;;;;1.33;1.17;;;;;;;;;;5010195;28;20413;-50
2022/07/12 10:30:21;;;;;;;7.95;1.48;;;;;;;;;;5009735;28;20076;-50
2022/07/12 10:32:48;;;;;;;2.85;1.35;;;;;;;;;;5009267;28;20402;-50
2022/07/12 10:35:16;;;;;;;5.70;1.50;;;;;;;;;;5006101;28;20026;-54
2022/07/12 10:38:03;;;;;;;3.95;2.28;;;;;;;;;;5009254;28;20033;-50
2022/07/12 10:40:34;;;;;;;20.13;14.35;;;;;;;;;;5009769;28;20374;-52
2022/07/12 10:43:07;;;;;;;6.60;1.58;;;;;;;;;;5011352;28;20083;-51
2022/07/12 10:45:38;;;;;;;6.40;1.02;;;;;;;;;;5000924;28;20021;-50
2022/07/12 10:48:19;;;;;;;6.78;1.88;;;;;;;;;;5011724;28;20042;-50
2022/07/12 10:50:45;;;;;;;6.43;1.80;;;;;;;;;;5014079;28;20053;-50
2022/07/12 10:53:21;;;;;;;3.92;1.55;;;;;;;;;;5014511;28;20107;-50
2022/07/12 10:56:10;;;;;;;3.20;1.48;;;;;;;;;;5011249;28;20025;-50
2022/07/12 10:58:55;;;;;;;3.40;1.02;;;;;;;;;;5002459;28;20042;-51
2022/07/12 11:01:28;;;;;;;4.15;1.55;;;;;;;;;;5010105;28;20153;-50
2022/07/12 11:04:08;;;;;;;6.40;1.20;;;;;;;;;;5015990;22;20406;-55
2022/07/12 11:06:38;;;;;;;3.83;1.02;;;;;;;;;;4974448;28;20065;-54
2022/07/12 11:09:08;;;;;;;4.53;1.27;;;;;;;;;;4973864;28;20031;-57
2022/07/12 11:11:44;;;;;;;2.63;1.25;;;;;;;;;;4975180;28;20514;-53
2022/07/12 11:14:11;;;;;;;4.90;1.13;;;;;;;;;;4975449;28;20023;-54
2022/07/12 11:16:47;;;;;;;5.72;1.10;;;;;;;;;;4967569;28;20154;-58
2022/07/12 11:19:14;;;;;;;6.23;0.97;;;;;;;;;;4973236;28;20377;-55
2022/07/12 11:21:43;;;;;;;5.63;1.80;;;;;;;;;;4971205;28;20258;-54
2022/07/12 11:24:19;;;;;;;4.75;1.40;;;;;;;;;;4971034;28;20042;-56
2022/07/12 11:26:45;;;;;;;2.78;1.30;;;;;;;;;;4956299;28;20051;-55
2022/07/12 11:29:12;;;;;;;3.78;1.20;;;;;;;;;;4956076;28;20098;-54
2022/07/12 11:31:38;;;;;;;3.75;1.35;;;;;;;;;;4956314;28;20508;-54
2022/07/12 11:34:04;;;;;;;1.80;1.15;;;;;;;;;;4970170;28;20073;-53
2022/07/12 11:36:31;;;;;;;10.38;1.50;;;;;;;;;;4967007;28;20059;-54
2022/07/12 11:38:57;;;;;;;;;;;;;;;;;;4956486;28;20042;-54
2022/07/12 11:41:24;;;;;;;2.08;1.38;;;;;;;;;;4968264;28;19912;-53
2022/07/12 11:43:50;;;;;;;5.93;1.15;;;;;;;;;;4974409;28;20027;-54
2022/07/12 11:46:17;;;;;;;3.03;1.20;;;;;;;;;;4974721;28;20031;-53
2022/07/12 11:48:44;;;;;;;3.08;1.40;;;;;;;;;;4974692;28;20029;-54
2022/07/12 11:51:11;;;;;;;3.08;1.35;;;;;;;;;;4974739;28;20037;-57
2022/07/12 11:53:38;;;;;;;3.70;1.30;;;;;;;;;;4975021;28;20023;-56
2022/07/12 11:56:04;;;;;;;;;;;;;;;;;;4975400;28;20167;-53
2022/07/12 11:58:32;;;;;;;7.45;1.48;;;;;;;;;;4974404;28;19959;-54
2022/07/12 12:00:58;;;;;;;4.47;1.40;;;;;;;;;;4973525;28;20034;-54
2022/07/12 12:03:25;;;;;;;4.72;0.95;;;;;;;;;;4955708;28;20106;-54
2022/07/12 12:05:52;;;;;;;2.88;1.13;;;;;;;;;;4955489;28;20415;-53
2022/07/12 12:08:19;;;;;;;4.70;1.40;;;;;;;;;;4969183;28;20034;-54
2022/07/12 12:10:55;;;;;;;8.10;1.30;;;;;;;;;;4974195;28;20035;-54
2022/07/12 12:13:21;;;;;;;2.30;0.98;;;;;;;;;;4974841;28;20151;-56
2022/07/12 12:15:47;;;;;;;;;;;;;;;;;;4975092;28;20026;-54
2022/07/12 12:18:13;;;;;;;5.20;1.48;;;;;;;;;;4974530;28;19906;-54
2022/07/12 12:20:41;;;;;;;3.78;1.20;;;;;;;;;;4973913;28;20023;-55
2022/07/12 12:23:18;;;;;;;5.75;1.55;;;;;;;;;;4974597;28;20019;-53
2022/07/12 12:25:45;;;;;;;7.55;1.27;;;;;;;;;;4974468;28;20088;-53
2022/07/12 12:28:12;;;;;;;5.30;2.33;;;;;;;;;;4974419;28;20027;-53
2022/07/12 12:30:38;;;;;;;;;;;;;;;;;;4974414;28;20026;-54
2022/07/12 12:33:07;;;;;;;4.60;1.23;;;;;;;;;;4974347;28;20296;-54
2022/07/12 12:35:34;;;;;;;6.78;1.48;;;;;;;;;;4959605;28;20030;-54
2022/07/12 12:38:02;;;;;;;6.03;1.48;;;;;;;;;;4954807;28;20039;-56
2022/07/12 12:40:29;;;;;;;6.43;1.30;;;;;;;;;;4971316;28;20023;-53
2022/07/12 12:43:07;;;;;;;13.20;2.78;;;;;;;;;;4974236;28;20053;-57
2022/07/12 12:45:33;;;;;;;3.95;1.10;;;;;;;;;;4954999;28;20033;-56
2022/07/12 12:48:06;;;;;;;4.47;1.40;;;;;;;;;;4966505;28;20027;-56
2022/07/12 12:50:38;;;;;;;3.53;1.58;;;;;;;;;;4973413;28;20057;-55
2022/07/12 12:53:15;;;;;;;8.27;1.75;;;;;;;;;;4973985;28;20373;-54
2022/07/12 12:55:43;;;;;;;5.75;1.38;;;;;;;;;;4973953;28;20030;-53
2022/07/12 12:58:09;;;;;;;4.90;1.40;;;;;;;;;;4974135;28;20058;-55
2022/07/12 13:00:38;;;;;;;2.22;1.20;;;29.30;50.00;;;;;;4968891;28;20031;-54
2022/07/12 13:03:05;;;;;;;6.05;1.38;;;34.20;40.60;;;;;;4954506;28;20023;-54
2022/07/12 13:05:31;;;;;;;5.28;2.35;;;34.20;40.90;;;;;;4973226;28;20050;-54
2022/07/12 13:07:56;;;;;;;5.45;1.38;;;34.40;41.20;;;;;;4969840;28;20027;-55
2022/07/12 13:10:23;;;;;;;3.50;1.42;;;;;;;;;;4972235;28;20031;-54
2022/07/12 13:12:49;;;;;;;8.77;1.52;;;34.40;40.50;;;;;;4972649;28;20034;-55
2022/07/12 13:15:15;;;;;;;5.88;1.25;;;34.70;39.70;;;;;;4972900;28;20153;-54
2022/07/12 13:17:41;;;;;;;5.47;1.52;;;;;;;;;;4973152;28;20105;-57
2022/07/12 13:20:08;;;;;;;4.55;1.58;;;34.80;39.60;;;;;;4972615;28;20037;-56
2022/07/12 13:22:34;;;;;;;4.95;1.55;;;;;;;;;;4973434;28;20038;-56
2022/07/12 13:25:00;;;;;;;;;;;;;;;;;;4973207;28;20521;-54
2022/07/12 13:27:29;;;;;;;5.65;1.50;;;;;;;;;;4973301;28;19905;-57
2022/07/12 13:29:56;;;;;;;4.97;1.40;;;;;;;;;;4971662;28;20495;-55
2022/07/12 13:32:22;;;;;;;;;;;;;;;;;;4973016;28;20427;-54
2022/07/12 13:34:48;;;;;;;2.50;1.23;;;;;;;;;;4972607;28;19910;-57
2022/07/12 13:37:14;;;;;;;30.15;21.27;;;34.90;38.80;;;;;;4968082;28;20042;-55
2022/07/12 13:42:25;;;;;;;4.68;1.73;;;40.00;33.00;;;;;;4972859;28;20120;-57
2022/07/12 13:44:51;;;;;;;2.78;1.30;;;42.10;31.10;;;;;;4972698;28;20078;-57
2022/07/12 13:47:19;;;;;;;7.10;1.50;;;42.90;30.40;;;;;;4971360;28;20034;-55
2022/07/12 13:49:46;;;;;;;5.50;1.40;;;;;;;;;;4972291;28;20031;-55
2022/07/12 13:52:11;;;;;;;2.88;1.23;;;45.00;29.00;;;;;;4972982;28;20523;-55
2022/07/12 13:54:37;;;;;;;4.07;1.60;;;45.90;28.20;;;;;;4970365;28;20101;-53
2022/07/12 13:57:04;;;;;;;2.42;1.27;;;46.60;27.60;;;;;;4972645;28;20200;-53
2022/07/12 13:59:29;;;;;;;5.13;1.40;;;47.30;27.40;;;;;;4953236;28;20098;-55
2022/07/12 14:01:55;;;;;;;2.83;1.33;;;48.10;27.10;;;;;;4970245;28;20034;-55
2022/07/12 14:04:21;;;;;;;2.50;1.40;;;;;;;;;;4972352;28;20042;-55
2022/07/12 14:06:48;;;;;;;4.03;1.42;;;;;;;;;;4967841;28;20377;-56
2022/07/12 14:09:15;;;;;;;4.28;1.60;;;;;;;;;;4965681;28;20038;-53
2022/07/12 14:11:41;;;;;;;5.45;1.92;;;48.50;25.90;;;;;;4972583;28;20054;-56
2022/07/12 14:14:07;;;;;;;3.22;1.65;;;49.70;25.30;;;;;;4969839;28;20796;-53
2022/07/12 14:16:33;;;;;;;4.82;1.10;;;;;;;;;;4971938;28;20105;-56
2022/07/12 14:19:00;;;;;;;4.35;1.50;;;50.00;25.80;;;;;;4971077;28;20411;-55
2022/07/12 14:21:27;;;;;;;1.33;1.15;;;;;;;;;;4972310;28;20022;-53
2022/07/12 14:23:53;;;;;;;3.10;1.30;;;50.70;24.60;;;;;;4974303;28;20058;-53
2022/07/12 14:26:22;;;;;;;6.00;2.08;;;;;;;;;;4975946;28;20030;-52
2022/07/12 14:28:48;;;;;;;4.72;2.58;;;;;;;;;;4975386;28;20026;-56
2022/07/12 14:31:15;;;;;;;4.40;1.60;;;;;;;;;;4975641;28;20019;-56
2022/07/12 14:33:42;;;;;;;7.28;1.50;;;;;;;;;;4974843;28;20519;-54
2022/07/12 14:36:08;;;;;;;5.85;1.65;;;;;;;;;;4974838;28;20034;-54
2022/07/12 14:38:34;;;;;;;2.58;1.70;;;;;;;;;;4975099;28;20035;-54
2022/07/12 14:41:00;;;;;;;2.42;1.33;;;50.50;24.70;;;;;;4975068;28;20031;-57